createdAt,value
2017-10-29T00:00:47.901Z,99.99
2017-10-29T00:01:56.529Z,99.99
2017-10-29T00:03:05.177Z,99.99
2017-10-29T00:04:13.787Z,99.99
2017-10-29T00:05:22.411Z,99.99
2017-10-29T00:06:31.035Z,99.99
2017-10-29T00:07:39.665Z,99.99
2017-10-29T00:08:48.285Z,99.99
2017-10-29T00:09:56.906Z,99.99
2017-10-29T00:11:05.536Z,99.99
2017-10-29T00:12:14.163Z,99.99
2017-10-29T00:13:22.782Z,99.99
2017-10-29T00:14:31.409Z,99.99
2017-10-29T00:15:40.385Z,99.99
2017-10-29T00:16:49.015Z,99.99
2017-10-29T00:17:57.643Z,99.99
2017-10-29T00:19:06.264Z,99.99
2017-10-29T00:20:14.892Z,99.99
2017-10-29T00:21:23.522Z,99.99
2017-10-29T00:22:32.139Z,99.99
2017-10-29T00:23:40.773Z,99.99
2017-10-29T00:24:49.405Z,99.99
2017-10-29T00:25:58.033Z,99.99
2017-10-29T00:27:06.655Z,99.99
2017-10-29T00:28:15.271Z,99.99
2017-10-29T00:29:23.903Z,99.99
2017-10-29T00:30:32.526Z,99.99
2017-10-29T00:31:41.160Z,99.99
2017-10-29T00:32:49.782Z,99.99
2017-10-29T00:33:58.406Z,99.99
2017-10-29T00:35:07.032Z,99.99
2017-10-29T00:36:15.660Z,99.99
2017-10-29T00:37:24.278Z,99.99
2017-10-29T00:38:32.906Z,99.99
2017-10-29T00:39:41.534Z,99.99
2017-10-29T00:40:50.151Z,99.99
2017-10-29T00:41:58.776Z,99.99
2017-10-29T00:43:07.402Z,99.99
2017-10-29T00:44:16.031Z,99.99
2017-10-29T00:45:24.662Z,99.99
2017-10-29T00:46:33.281Z,99.99
2017-10-29T00:47:41.910Z,99.99
2017-10-29T00:48:50.538Z,99.99
2017-10-29T00:49:59.156Z,99.99
2017-10-29T00:51:07.788Z,99.99
2017-10-29T00:52:16.415Z,99.99
2017-10-29T00:53:25.039Z,99.99
2017-10-29T00:54:33.666Z,99.99
2017-10-29T00:55:42.307Z,99.99
2017-10-29T00:56:50.935Z,99.99
2017-10-29T00:57:59.550Z,99.99
2017-10-29T00:59:08.183Z,99.99
2017-10-29T01:00:16.802Z,99.99
2017-10-29T01:01:25.433Z,99.99
2017-10-29T01:02:34.052Z,99.99
2017-10-29T01:03:42.675Z,99.99
2017-10-29T01:04:51.307Z,99.99
2017-10-29T01:05:59.930Z,99.99
2017-10-29T01:07:08.557Z,99.99
2017-10-29T01:08:17.190Z,99.99
2017-10-29T01:09:25.814Z,99.99
2017-10-29T01:10:34.440Z,99.99
2017-10-29T01:11:43.065Z,99.99
2017-10-29T01:12:51.694Z,99.99
2017-10-29T01:14:00.313Z,99.99
2017-10-29T01:15:08.942Z,99.99
2017-10-29T01:16:17.561Z,99.99
2017-10-29T01:17:26.194Z,99.99
2017-10-29T01:18:34.815Z,99.99
2017-10-29T01:19:43.442Z,99.99
2017-10-29T01:20:52.071Z,99.99
2017-10-29T01:22:00.689Z,99.99
2017-10-29T01:23:09.325Z,99.99
2017-10-29T01:24:17.948Z,99.99
2017-10-29T01:25:26.573Z,99.99
2017-10-29T01:26:35.542Z,99.99
2017-10-29T01:27:44.163Z,99.99
2017-10-29T01:28:52.788Z,99.99
2017-10-29T01:30:01.415Z,99.99
2017-10-29T01:31:10.040Z,99.99
2017-10-29T01:32:18.676Z,99.99
2017-10-29T01:33:27.304Z,99.99
2017-10-29T01:34:35.923Z,99.99
2017-10-29T01:35:44.554Z,99.99
2017-10-29T01:36:53.179Z,99.99
2017-10-29T01:38:01.804Z,99.99
2017-10-29T01:39:10.438Z,99.99
2017-10-29T01:40:19.061Z,99.99
2017-10-29T01:41:27.678Z,99.99
2017-10-29T01:42:36.313Z,99.99
2017-10-29T01:43:44.932Z,99.99
2017-10-29T01:44:53.564Z,99.99
2017-10-29T01:46:02.191Z,99.99
2017-10-29T01:47:10.812Z,99.99
2017-10-29T01:48:19.438Z,99.99
2017-10-29T01:49:28.068Z,99.99
2017-10-29T01:50:36.688Z,99.99
2017-10-29T01:51:45.316Z,99.99
2017-10-29T01:52:53.944Z,99.99
2017-10-29T01:54:02.564Z,99.99
2017-10-29T01:55:11.191Z,99.99
2017-10-29T01:56:19.824Z,99.99
2017-10-29T01:57:28.783Z,99.99
2017-10-29T01:58:37.413Z,99.99
2017-10-29T01:59:46.033Z,99.99
2017-10-29T02:00:54.658Z,99.99
2017-10-29T02:02:03.289Z,99.99
2017-10-29T02:03:11.910Z,99.99
2017-10-29T02:04:20.539Z,99.99
2017-10-29T02:05:29.167Z,99.99
2017-10-29T02:06:37.791Z,99.99
2017-10-29T02:07:46.420Z,99.99
2017-10-29T02:08:55.053Z,99.99
2017-10-29T02:10:03.675Z,99.99
2017-10-29T02:11:12.298Z,99.99
2017-10-29T02:12:20.930Z,99.99
2017-10-29T02:13:29.546Z,99.99
2017-10-29T02:14:38.176Z,99.99
2017-10-29T02:15:46.796Z,99.99
2017-10-29T02:16:55.747Z,99.99
2017-10-29T02:18:04.377Z,99.99
2017-10-29T02:19:13.328Z,99.99
2017-10-29T02:20:21.959Z,99.99
2017-10-29T02:21:30.578Z,99.99
2017-10-29T02:22:39.205Z,99.99
2017-10-29T02:23:47.831Z,99.99
2017-10-29T02:24:56.462Z,99.99
2017-10-29T02:26:05.082Z,99.99
2017-10-29T02:27:13.715Z,99.99
2017-10-29T02:28:22.341Z,99.99
2017-10-29T02:29:30.969Z,99.99
2017-10-29T02:30:39.925Z,99.99
2017-10-29T02:31:48.553Z,99.99
2017-10-29T02:32:57.181Z,99.99
2017-10-29T02:34:05.815Z,99.99
2017-10-29T02:35:14.434Z,99.99
2017-10-29T02:36:23.066Z,99.99
2017-10-29T02:37:31.692Z,99.99
2017-10-29T02:38:40.313Z,99.99
2017-10-29T02:39:48.946Z,99.99
2017-10-29T02:40:57.573Z,99.99
2017-10-29T02:42:06.527Z,99.99
2017-10-29T02:43:15.484Z,99.99
2017-10-29T02:44:24.109Z,99.99
2017-10-29T02:45:32.742Z,99.99
2017-10-29T02:46:41.367Z,99.99
2017-10-29T02:47:49.987Z,99.99
2017-10-29T02:48:58.618Z,99.99
2017-10-29T02:50:07.238Z,99.99
2017-10-29T02:51:15.868Z,99.99
2017-10-29T02:52:24.488Z,99.99
2017-10-29T02:53:33.115Z,99.99
2017-10-29T02:54:41.744Z,99.99
2017-10-29T02:55:50.370Z,99.99
2017-10-29T02:56:58.999Z,99.99
2017-10-29T02:58:07.625Z,99.99
2017-10-29T02:59:16.917Z,99.99
2017-10-29T03:00:25.545Z,99.99
2017-10-29T03:01:34.166Z,99.99
2017-10-29T03:02:42.791Z,99.99
2017-10-29T03:03:51.754Z,99.99
2017-10-29T03:05:00.374Z,99.99
2017-10-29T03:06:08.998Z,99.99
2017-10-29T03:07:17.632Z,99.99
2017-10-29T03:08:26.255Z,99.99
2017-10-29T03:09:34.877Z,99.99
2017-10-29T03:10:43.506Z,99.99
2017-10-29T03:11:52.124Z,99.99
2017-10-29T03:13:00.761Z,99.99
2017-10-29T03:14:09.712Z,99.99
2017-10-29T03:15:18.336Z,99.99
2017-10-29T03:16:26.969Z,99.99
2017-10-29T03:17:35.593Z,99.99
2017-10-29T03:18:44.213Z,99.99
2017-10-29T03:19:52.837Z,99.99
2017-10-29T03:21:01.458Z,99.99
2017-10-29T03:22:10.091Z,99.99
2017-10-29T03:23:18.718Z,99.99
2017-10-29T03:24:27.339Z,99.99
2017-10-29T03:25:35.972Z,99.99
2017-10-29T03:26:44.590Z,99.99
2017-10-29T03:27:53.216Z,99.99
2017-10-29T03:29:01.837Z,99.99
2017-10-29T03:30:10.458Z,99.99
2017-10-29T03:31:19.086Z,99.99
2017-10-29T03:32:27.710Z,99.99
2017-10-29T03:33:36.331Z,99.99
2017-10-29T03:34:44.961Z,99.99
2017-10-29T03:35:53.586Z,99.99
2017-10-29T03:37:02.208Z,99.99
2017-10-29T03:38:10.833Z,99.99
2017-10-29T03:39:19.458Z,99.99
2017-10-29T03:40:28.077Z,99.99
2017-10-29T03:41:36.703Z,99.99
2017-10-29T03:42:45.326Z,99.99
2017-10-29T03:43:53.959Z,99.99
2017-10-29T03:45:02.584Z,99.99
2017-10-29T03:46:11.210Z,99.99
2017-10-29T03:47:19.831Z,99.99
2017-10-29T03:48:28.459Z,99.99
2017-10-29T03:49:37.073Z,99.99
2017-10-29T03:50:45.704Z,99.99
2017-10-29T03:51:54.327Z,99.99
2017-10-29T03:53:02.948Z,99.99
2017-10-29T03:54:11.571Z,99.99
2017-10-29T03:55:20.196Z,99.99
2017-10-29T03:56:28.821Z,99.99
2017-10-29T03:57:37.783Z,99.99
2017-10-29T03:58:46.401Z,99.99
2017-10-29T03:59:55.027Z,99.99
2017-10-29T04:01:03.654Z,99.99
2017-10-29T04:02:12.270Z,99.99
2017-10-29T04:03:21.235Z,99.99
2017-10-29T04:04:29.857Z,99.99
2017-10-29T04:05:38.479Z,99.99
2017-10-29T04:06:47.102Z,99.99
2017-10-29T04:07:55.732Z,99.99
2017-10-29T04:09:04.358Z,99.99
2017-10-29T04:10:12.984Z,99.99
2017-10-29T04:11:21.602Z,99.99
2017-10-29T04:12:30.563Z,99.99
2017-10-29T04:13:39.519Z,99.99
2017-10-29T04:14:48.145Z,99.99
2017-10-29T04:15:56.766Z,99.99
2017-10-29T04:17:05.398Z,99.99
2017-10-29T04:18:14.019Z,99.99
2017-10-29T04:19:22.646Z,99.99
2017-10-29T04:20:31.265Z,99.99
2017-10-29T04:21:39.892Z,99.99
2017-10-29T04:22:48.520Z,99.99
2017-10-29T04:23:57.138Z,99.99
2017-10-29T04:25:05.772Z,99.99
2017-10-29T04:26:14.393Z,99.99
2017-10-29T04:27:23.029Z,99.99
2017-10-29T04:28:31.674Z,99.99
2017-10-29T04:29:40.264Z,99.99
2017-10-29T04:30:48.892Z,99.99
2017-10-29T04:31:57.520Z,99.99
2017-10-29T04:33:06.144Z,99.99
2017-10-29T04:34:14.763Z,99.99
2017-10-29T04:35:23.397Z,99.99
2017-10-29T04:36:32.018Z,99.99
2017-10-29T04:37:40.644Z,99.99
2017-10-29T04:38:49.275Z,99.99
2017-10-29T04:39:57.895Z,99.99
2017-10-29T04:41:06.520Z,99.99
2017-10-29T04:42:15.477Z,99.99
2017-10-29T04:43:24.101Z,99.99
2017-10-29T04:44:32.732Z,99.99
2017-10-29T04:45:41.356Z,99.99
2017-10-29T04:46:50.310Z,99.99
2017-10-29T04:47:58.944Z,99.99
2017-10-29T04:49:07.566Z,99.99
2017-10-29T04:50:16.189Z,99.99
2017-10-29T04:51:24.815Z,99.99
2017-10-29T04:52:33.774Z,99.99
2017-10-29T04:53:42.392Z,99.99
2017-10-29T04:54:51.020Z,99.99
2017-10-29T04:55:59.642Z,99.99
2017-10-29T04:57:08.274Z,99.99
2017-10-29T04:58:16.896Z,99.99
2017-10-29T04:59:25.518Z,99.99
2017-10-29T05:00:34.148Z,99.99
2017-10-29T05:01:42.770Z,99.99
2017-10-29T05:02:51.387Z,99.99
2017-10-29T05:04:00.015Z,99.99
2017-10-29T05:05:08.642Z,99.99
2017-10-29T05:06:17.259Z,99.99
2017-10-29T05:07:25.885Z,99.99
2017-10-29T05:08:34.514Z,99.99
2017-10-29T05:09:43.142Z,99.99
2017-10-29T05:10:51.767Z,99.99
2017-10-29T05:12:00.731Z,99.99
2017-10-29T05:13:09.359Z,99.99
2017-10-29T05:14:17.991Z,99.99
2017-10-29T05:15:26.937Z,99.99
2017-10-29T05:16:35.572Z,99.99
2017-10-29T05:17:44.196Z,99.99
2017-10-29T05:18:52.823Z,99.99
2017-10-29T05:20:01.449Z,99.99
2017-10-29T05:21:10.068Z,99.99
2017-10-29T05:22:18.697Z,99.99
2017-10-29T05:23:27.319Z,99.99
2017-10-29T05:24:35.950Z,99.13
2017-10-29T05:25:44.572Z,99.99
2017-10-29T05:26:53.196Z,99.51
2017-10-29T05:28:01.822Z,99.99
2017-10-29T05:29:10.781Z,99.99
2017-10-29T05:30:19.398Z,99.99
2017-10-29T05:31:28.024Z,99.99
2017-10-29T05:32:36.653Z,99.18
2017-10-29T05:33:45.272Z,97.51
2017-10-29T05:34:53.900Z,98.36
2017-10-29T05:36:02.524Z,99.37
2017-10-29T05:37:11.149Z,99.99
2017-10-29T05:38:19.780Z,99.99
2017-10-29T05:39:28.401Z,99.99
2017-10-29T05:40:37.028Z,99.99
2017-10-29T05:41:45.654Z,99.99
2017-10-29T05:42:54.272Z,99.99
2017-10-29T05:44:02.896Z,99.99
2017-10-29T05:45:11.525Z,99.99
2017-10-29T05:46:20.146Z,99.99
2017-10-29T05:47:28.776Z,99.99
2017-10-29T05:48:37.402Z,99.99
2017-10-29T05:49:46.025Z,99.99
2017-10-29T05:50:54.649Z,99.79
2017-10-29T05:52:03.281Z,99.08
2017-10-29T05:53:11.899Z,99.99
2017-10-29T05:54:20.528Z,99.99
2017-10-29T05:55:29.152Z,99.98
2017-10-29T05:56:37.771Z,99.99
2017-10-29T05:57:46.403Z,99.99
2017-10-29T05:58:55.022Z,98.08
2017-10-29T06:00:03.646Z,99.13
2017-10-29T06:01:12.278Z,96.27
2017-10-29T06:02:20.899Z,97.31
2017-10-29T06:03:29.518Z,96.75
2017-10-29T06:04:38.150Z,96.55
2017-10-29T06:05:46.772Z,94.84
2017-10-29T06:06:55.388Z,93.89
2017-10-29T06:08:04.013Z,93.98
2017-10-29T06:09:12.631Z,94.65
2017-10-29T06:10:21.268Z,93.13
2017-10-29T06:11:29.884Z,98.94
2017-10-29T06:12:38.506Z,99.99
2017-10-29T06:13:47.136Z,97.7
2017-10-29T06:14:55.750Z,96.36
2017-10-29T06:16:04.380Z,97.79
2017-10-29T06:17:13.338Z,95.98
2017-10-29T06:18:21.959Z,94.37
2017-10-29T06:19:30.591Z,96.08
2017-10-29T06:20:39.211Z,94.46
2017-10-29T06:21:47.833Z,97.03
2017-10-29T06:22:56.452Z,96.94
2017-10-29T06:24:05.077Z,94.74
2017-10-29T06:25:13.706Z,96.17
2017-10-29T06:26:22.328Z,93.08
2017-10-29T06:27:30.949Z,94.56
2017-10-29T06:28:39.584Z,95.7
2017-10-29T06:29:48.204Z,92.94
2017-10-29T06:30:56.822Z,92.27
2017-10-29T06:32:05.445Z,92.51
2017-10-29T06:33:14.073Z,93.13
2017-10-29T06:34:22.694Z,93.41
2017-10-29T06:35:31.316Z,95.6
2017-10-29T06:36:39.939Z,94.46
2017-10-29T06:37:48.570Z,93.32
2017-10-29T06:38:57.191Z,91.89
2017-10-29T06:40:05.815Z,94.65
2017-10-29T06:41:14.444Z,94.56
2017-10-29T06:42:23.068Z,93.32
2017-10-29T06:43:31.681Z,91.65
2017-10-29T06:44:40.301Z,93.03
2017-10-29T06:45:48.925Z,94.17
2017-10-29T06:46:57.561Z,94.51
2017-10-29T06:48:06.175Z,94.17
2017-10-29T06:49:14.798Z,93.55
2017-10-29T06:50:23.422Z,94.42
2017-10-29T06:51:32.043Z,94.22
2017-10-29T06:52:40.672Z,93.94
2017-10-29T06:53:49.294Z,94.22
2017-10-29T06:54:57.916Z,95.84
2017-10-29T06:56:06.548Z,95.27
2017-10-29T06:57:15.171Z,96.31
2017-10-29T06:58:23.790Z,94.79
2017-10-29T06:59:32.418Z,96.22
2017-10-29T07:00:41.041Z,95.08
2017-10-29T07:01:49.654Z,94.7
2017-10-29T07:02:58.279Z,95.7
2017-10-29T07:04:06.908Z,95.12
2017-10-29T07:05:15.861Z,96.17
2017-10-29T07:06:24.488Z,95.32
2017-10-29T07:07:33.111Z,94.93
2017-10-29T07:08:41.740Z,95.03
2017-10-29T07:09:50.366Z,96.17
2017-10-29T07:10:58.983Z,96.08
2017-10-29T07:12:07.610Z,95.22
2017-10-29T07:13:16.230Z,96.84
2017-10-29T07:14:24.875Z,95.51
2017-10-29T07:15:33.488Z,96.75
2017-10-29T07:16:42.105Z,97.6
2017-10-29T07:17:50.732Z,97.6
2017-10-29T07:18:59.356Z,96.27
2017-10-29T07:20:07.976Z,94.93
2017-10-29T07:21:16.931Z,95.12
2017-10-29T07:22:25.556Z,94.65
2017-10-29T07:23:34.190Z,95.7
2017-10-29T07:24:42.809Z,96.17
2017-10-29T07:25:51.432Z,98.08
2017-10-29T07:27:00.058Z,99.99
2017-10-29T07:28:08.687Z,98.22
2017-10-29T07:29:17.304Z,99.46
2017-10-29T07:30:25.934Z,98.5
2017-10-29T07:31:34.558Z,96.31
2017-10-29T07:32:43.504Z,96.03
2017-10-29T07:33:52.135Z,95.89
2017-10-29T07:35:00.763Z,95.79
2017-10-29T07:36:09.388Z,94.74
2017-10-29T07:37:18.013Z,96.27
2017-10-29T07:38:26.633Z,99.13
2017-10-29T07:39:35.258Z,98.55
2017-10-29T07:40:43.894Z,99.69
2017-10-29T07:41:52.503Z,97.6
2017-10-29T07:43:01.130Z,96.94
2017-10-29T07:44:09.756Z,97.17
2017-10-29T07:45:18.374Z,95.98
2017-10-29T07:46:26.998Z,95.98
2017-10-29T07:47:35.628Z,96.17
2017-10-29T07:48:44.252Z,96.65
2017-10-29T07:49:52.878Z,96.36
2017-10-29T07:51:01.493Z,97.03
2017-10-29T07:52:10.125Z,99.03
2017-10-29T07:53:18.751Z,99.51
2017-10-29T07:54:27.372Z,99.51
2017-10-29T07:55:35.998Z,98.46
2017-10-29T07:56:44.653Z,97.6
2017-10-29T07:57:53.246Z,97.31
2017-10-29T07:59:01.867Z,98.84
2017-10-29T08:00:10.505Z,97.89
2017-10-29T08:01:19.459Z,99.99
2017-10-29T08:02:28.079Z,99.13
2017-10-29T08:03:36.702Z,99.03
2017-10-29T08:04:45.326Z,95.89
2017-10-29T08:05:53.956Z,96.84
2017-10-29T08:07:02.580Z,96.55
2017-10-29T08:08:11.200Z,99.22
2017-10-29T08:09:19.834Z,96.84
2017-10-29T08:10:28.454Z,95.32
2017-10-29T08:11:37.083Z,95.79
2017-10-29T08:12:45.706Z,95.12
2017-10-29T08:13:54.339Z,96.36
2017-10-29T08:15:02.971Z,96.94
2017-10-29T08:16:11.590Z,97.51
2017-10-29T08:17:20.222Z,96.65
2017-10-29T08:18:28.847Z,96.55
2017-10-29T08:19:37.466Z,96.27
2017-10-29T08:20:46.093Z,96.27
2017-10-29T08:21:54.716Z,97.03
2017-10-29T08:23:03.337Z,96.75
2017-10-29T08:24:11.992Z,96.55
2017-10-29T08:25:20.594Z,95.79
2017-10-29T08:26:29.214Z,95.7
2017-10-29T08:27:37.852Z,95.89
2017-10-29T08:28:46.474Z,95.89
2017-10-29T08:29:55.092Z,95.89
2017-10-29T08:31:03.720Z,95.98
2017-10-29T08:32:12.345Z,96.36
2017-10-29T08:33:20.969Z,95.7
2017-10-29T08:34:29.945Z,96.46
2017-10-29T08:35:38.558Z,95.41
2017-10-29T08:36:47.191Z,96.08
2017-10-29T08:37:55.818Z,96.12
2017-10-29T08:39:04.767Z,96.41
2017-10-29T08:40:13.394Z,98.41
2017-10-29T08:41:22.022Z,95.08
2017-10-29T08:42:30.639Z,94.51
2017-10-29T08:43:39.271Z,96.41
2017-10-29T08:44:47.898Z,97.65
2017-10-29T08:45:56.515Z,95.75
2017-10-29T08:47:05.143Z,96.32
2017-10-29T08:48:13.770Z,96.12
2017-10-29T08:49:22.396Z,97.75
2017-10-29T08:50:31.021Z,96.22
2017-10-29T08:51:39.640Z,96.51
2017-10-29T08:52:48.268Z,94.79
2017-10-29T08:53:56.893Z,96.89
2017-10-29T08:55:05.515Z,93.74
2017-10-29T08:56:14.150Z,94.32
2017-10-29T08:57:22.783Z,94.13
2017-10-29T08:58:31.399Z,93.37
2017-10-29T08:59:40.025Z,91.5
2017-10-29T09:00:48.657Z,91.98
2017-10-29T09:01:57.282Z,91.6
2017-10-29T09:03:05.916Z,91.41
2017-10-29T09:04:14.532Z,93.03
2017-10-29T09:05:23.156Z,92.74
2017-10-29T09:06:31.786Z,91.5
2017-10-29T09:07:40.407Z,91.03
2017-10-29T09:08:49.369Z,91.6
2017-10-29T09:09:58.002Z,89.79
2017-10-29T09:11:06.625Z,92.41
2017-10-29T09:12:15.255Z,91.46
2017-10-29T09:13:23.875Z,91.46
2017-10-29T09:14:32.503Z,91.27
2017-10-29T09:15:41.131Z,92.69
2017-10-29T09:16:49.755Z,92.6
2017-10-29T09:17:58.387Z,93.08
2017-10-29T09:19:07.008Z,92.79
2017-10-29T09:20:15.635Z,91.74
2017-10-29T09:21:24.259Z,93.46
2017-10-29T09:22:33.207Z,93.65
2017-10-29T09:23:41.835Z,93.93
2017-10-29T09:24:50.464Z,95.22
2017-10-29T09:25:59.087Z,92.27
2017-10-29T09:27:07.709Z,91.5
2017-10-29T09:28:16.343Z,91.69
2017-10-29T09:29:24.968Z,93.98
2017-10-29T09:30:33.603Z,93.22
2017-10-29T09:31:42.563Z,94.79
2017-10-29T09:32:51.180Z,91.46
2017-10-29T09:33:59.807Z,92.17
2017-10-29T09:35:08.430Z,90.17
2017-10-29T09:36:17.052Z,90.45
2017-10-29T09:37:25.687Z,88.26
2017-10-29T09:38:34.309Z,87.88
2017-10-29T09:39:42.937Z,88.45
2017-10-29T09:40:51.569Z,87.88
2017-10-29T09:42:00.194Z,88.45
2017-10-29T09:43:08.821Z,87.21
2017-10-29T09:44:17.445Z,88.45
2017-10-29T09:45:26.072Z,87.5
2017-10-29T09:46:34.690Z,86.83
2017-10-29T09:47:43.315Z,88.84
2017-10-29T09:48:51.936Z,85.78
2017-10-29T09:50:00.567Z,84.64
2017-10-29T09:51:09.191Z,84.36
2017-10-29T09:52:17.813Z,85.41
2017-10-29T09:53:26.442Z,84.07
2017-10-29T09:54:35.068Z,83.02
2017-10-29T09:55:43.686Z,84.07
2017-10-29T09:56:52.318Z,84.16
2017-10-29T09:58:00.946Z,85.41
2017-10-29T09:59:09.566Z,85.12
2017-10-29T10:00:18.194Z,83.21
2017-10-29T10:01:26.822Z,82.87
2017-10-29T10:02:35.456Z,82.59
2017-10-29T10:03:44.410Z,84.59
2017-10-29T10:04:53.370Z,85.73
2017-10-29T10:06:02.320Z,86.02
2017-10-29T10:07:10.948Z,83.54
2017-10-29T10:08:19.566Z,84.59
2017-10-29T10:09:28.214Z,84.49
2017-10-29T10:10:36.824Z,86.78
2017-10-29T10:11:45.455Z,84.69
2017-10-29T10:12:54.083Z,84.3
2017-10-29T10:14:02.708Z,84.83
2017-10-29T10:15:11.340Z,85.12
2017-10-29T10:16:19.963Z,85.12
2017-10-29T10:17:28.595Z,85.02
2017-10-29T10:18:37.219Z,86.65
2017-10-29T10:19:45.844Z,87.4
2017-10-29T10:20:54.803Z,87.5
2017-10-29T10:22:03.433Z,87.4
2017-10-29T10:23:12.052Z,87.21
2017-10-29T10:24:20.680Z,87.21
2017-10-29T10:25:29.308Z,88.07
2017-10-29T10:26:37.925Z,85.88
2017-10-29T10:27:46.554Z,85.97
2017-10-29T10:28:55.181Z,86.93
2017-10-29T10:30:03.803Z,87.6
2017-10-29T10:31:12.436Z,86.74
2017-10-29T10:32:21.056Z,87.5
2017-10-29T10:33:29.688Z,87.21
2017-10-29T10:34:38.317Z,85.6
2017-10-29T10:35:46.937Z,86.45
2017-10-29T10:36:55.568Z,87.5
2017-10-29T10:38:04.197Z,88.51
2017-10-29T10:39:12.827Z,88.26
2017-10-29T10:40:21.457Z,88.31
2017-10-29T10:41:30.075Z,88.51
2017-10-29T10:42:38.702Z,86.93
2017-10-29T10:43:47.331Z,84.92
2017-10-29T10:44:55.952Z,85.97
2017-10-29T10:46:04.585Z,87.69
2017-10-29T10:47:13.212Z,84.64
2017-10-29T10:48:21.843Z,85.12
2017-10-29T10:49:30.471Z,84.11
2017-10-29T10:50:39.091Z,83.54
2017-10-29T10:51:47.718Z,85.64
2017-10-29T10:52:56.348Z,84.3
2017-10-29T10:54:04.968Z,83.44
2017-10-29T10:55:13.594Z,82.97
2017-10-29T10:56:22.226Z,85.45
2017-10-29T10:57:30.853Z,84.59
2017-10-29T10:58:39.473Z,86.3
2017-10-29T10:59:48.104Z,84.78
2017-10-29T11:00:56.735Z,86.49
2017-10-29T11:02:05.357Z,83.35
2017-10-29T11:03:13.979Z,83.83
2017-10-29T11:04:22.602Z,83.64
2017-10-29T11:05:31.231Z,82.97
2017-10-29T11:06:39.856Z,82.68
2017-10-29T11:07:48.488Z,83.73
2017-10-29T11:08:57.110Z,84.69
2017-10-29T11:10:05.741Z,85.45
2017-10-29T11:11:14.370Z,87.16
2017-10-29T11:12:22.990Z,86.59
2017-10-29T11:13:31.620Z,86.21
2017-10-29T11:14:40.249Z,86.02
2017-10-29T11:15:48.876Z,85.45
2017-10-29T11:16:57.506Z,84.49
2017-10-29T11:18:06.129Z,84.59
2017-10-29T11:19:14.761Z,87.16
2017-10-29T11:20:23.389Z,86.11
2017-10-29T11:21:32.008Z,86.69
2017-10-29T11:22:40.641Z,83.01
2017-10-29T11:23:49.273Z,86.25
2017-10-29T11:24:57.895Z,83.48
2017-10-29T11:26:06.521Z,82.43
2017-10-29T11:27:15.154Z,84.06
2017-10-29T11:28:23.781Z,84.25
2017-10-29T11:29:32.412Z,84.44
2017-10-29T11:30:41.030Z,85.68
2017-10-29T11:31:49.660Z,84.63
2017-10-29T11:32:58.296Z,86.44
2017-10-29T11:34:06.913Z,86.02
2017-10-29T11:35:15.538Z,86.3
2017-10-29T11:36:24.173Z,89.45
2017-10-29T11:37:32.796Z,98.03
2017-10-29T11:38:41.421Z,99.99
2017-10-29T11:39:50.386Z,99.99
2017-10-29T11:40:59.010Z,99.99
2017-10-29T11:42:07.635Z,99.99
2017-10-29T11:43:16.265Z,99.99
2017-10-29T11:44:24.883Z,99.99
2017-10-29T11:45:33.515Z,99.99
2017-10-29T11:46:42.140Z,99.99
2017-10-29T11:47:50.764Z,99.99
2017-10-29T11:48:59.396Z,99.99
2017-10-29T11:50:08.021Z,99.99
2017-10-29T11:51:16.645Z,99.99
2017-10-29T11:52:25.272Z,99.99
2017-10-29T11:53:33.902Z,99.99
2017-10-29T11:54:42.523Z,99.99
2017-10-29T11:55:51.158Z,99.99
2017-10-29T11:56:59.783Z,99.99
2017-10-29T11:58:08.403Z,99.99
2017-10-29T11:59:17.031Z,99.99
2017-10-29T12:00:25.657Z,99.99
2017-10-29T12:01:34.290Z,99.99
2017-10-29T12:02:42.912Z,99.99
2017-10-29T12:03:51.528Z,99.99
2017-10-29T12:05:00.154Z,99.99
2017-10-29T12:06:08.777Z,99.99
2017-10-29T12:07:17.408Z,99.99
2017-10-29T12:08:26.030Z,99.99
2017-10-29T12:09:34.653Z,99.99
2017-10-29T12:10:43.280Z,99.99
2017-10-29T12:11:51.911Z,99.99
2017-10-29T12:13:00.535Z,99.99
2017-10-29T12:14:09.157Z,99.99
2017-10-29T12:15:17.779Z,99.99
2017-10-29T12:16:26.411Z,99.99
2017-10-29T12:17:35.035Z,99.99
2017-10-29T12:18:43.657Z,99.99
2017-10-29T12:19:52.285Z,99.84
2017-10-29T12:21:00.911Z,99.46
2017-10-29T12:22:09.531Z,98.22
2017-10-29T12:23:18.162Z,93.84
2017-10-29T12:24:26.788Z,94.13
2017-10-29T12:25:35.419Z,95.51
2017-10-29T12:26:44.034Z,95.46
2017-10-29T12:27:52.664Z,94.7
2017-10-29T12:29:01.290Z,90.41
2017-10-29T12:30:09.918Z,91.17
2017-10-29T12:31:18.538Z,93.08
2017-10-29T12:32:27.171Z,94.98
2017-10-29T12:33:35.789Z,94.41
2017-10-29T12:34:44.407Z,96.41
2017-10-29T12:35:53.037Z,99.99
2017-10-29T12:37:01.665Z,96.7
2017-10-29T12:38:10.290Z,94.6
2017-10-29T12:39:18.910Z,93.93
2017-10-29T12:40:27.541Z,93.46
2017-10-29T12:41:36.165Z,94.98
2017-10-29T12:42:44.792Z,92.46
2017-10-29T12:43:53.418Z,91.5
2017-10-29T12:45:02.040Z,92.03
2017-10-29T12:46:10.667Z,92.55
2017-10-29T12:47:19.292Z,92.74
2017-10-29T12:48:27.917Z,93.6
2017-10-29T12:49:36.552Z,94.74
2017-10-29T12:50:45.175Z,94.27
2017-10-29T12:51:53.799Z,90.84
2017-10-29T12:53:02.434Z,90.17
2017-10-29T12:54:11.058Z,93.12
2017-10-29T12:55:19.685Z,92.08
2017-10-29T12:56:28.315Z,89.6
2017-10-29T12:57:36.936Z,87.21
2017-10-29T12:58:45.567Z,85.02
2017-10-29T12:59:54.189Z,87.88
2017-10-29T13:01:02.817Z,86.83
2017-10-29T13:02:11.451Z,85.12
2017-10-29T13:03:20.075Z,84.45
2017-10-29T13:04:28.696Z,85.21
2017-10-29T13:05:37.322Z,84.36
2017-10-29T13:06:45.944Z,88.64
2017-10-29T13:07:54.579Z,86.16
2017-10-29T13:09:03.209Z,87.98
2017-10-29T13:10:11.831Z,86.74
2017-10-29T13:11:20.460Z,86.36
2017-10-29T13:12:29.083Z,86.59
2017-10-29T13:13:37.717Z,86.88
2017-10-29T13:14:46.670Z,84.97
2017-10-29T13:15:55.292Z,86.69
2017-10-29T13:17:03.939Z,86.07
2017-10-29T13:18:12.551Z,87.54
2017-10-29T13:19:21.175Z,86.49
2017-10-29T13:20:29.812Z,86.36
2017-10-29T13:21:38.435Z,87.88
2017-10-29T13:22:47.059Z,85.78
2017-10-29T13:23:55.685Z,89.12
2017-10-29T13:25:04.320Z,86.55
2017-10-29T13:26:12.943Z,87.02
2017-10-29T13:27:21.568Z,87.69
2017-10-29T13:28:30.524Z,87.02
2017-10-29T13:29:39.159Z,90.84
2017-10-29T13:30:47.785Z,86.55
2017-10-29T13:31:56.410Z,85.88
2017-10-29T13:33:05.042Z,88.17
2017-10-29T13:34:13.673Z,85.41
2017-10-29T13:35:22.291Z,85.69
2017-10-29T13:36:30.917Z,84.45
2017-10-29T13:37:39.547Z,84.64
2017-10-29T13:38:48.169Z,85.12
2017-10-29T13:39:56.798Z,86.55
2017-10-29T13:41:05.427Z,88.93
2017-10-29T13:42:14.056Z,89.22
2017-10-29T13:43:22.685Z,84.83
2017-10-29T13:44:31.305Z,86.26
2017-10-29T13:45:39.935Z,85.21
2017-10-29T13:46:48.567Z,87.79
2017-10-29T13:47:57.191Z,85.6
2017-10-29T13:49:06.144Z,87.02
2017-10-29T13:50:14.778Z,88.17
2017-10-29T13:51:23.769Z,87.69
2017-10-29T13:52:32.391Z,85.31
2017-10-29T13:53:41.023Z,85.88
2017-10-29T13:54:49.649Z,85.12
2017-10-29T13:55:58.288Z,83.97
2017-10-29T13:57:06.910Z,86.65
2017-10-29T13:58:15.540Z,86.65
2017-10-29T13:59:24.170Z,85.12
2017-10-29T14:00:32.798Z,85.21
2017-10-29T14:01:41.419Z,85.97
2017-10-29T14:02:50.054Z,88.45
2017-10-29T14:03:58.679Z,86.07
2017-10-29T14:05:07.306Z,87.12
2017-10-29T14:06:15.924Z,89.6
2017-10-29T14:07:24.556Z,86.83
2017-10-29T14:08:33.185Z,85.78
2017-10-29T14:09:42.143Z,87.5
2017-10-29T14:10:50.774Z,88.84
2017-10-29T14:11:59.394Z,89.17
2017-10-29T14:13:08.024Z,88.89
2017-10-29T14:14:16.653Z,90.79
2017-10-29T14:15:25.604Z,90.98
2017-10-29T14:16:34.235Z,91.08
2017-10-29T14:17:42.865Z,90.5
2017-10-29T14:18:51.485Z,92.32
2017-10-29T14:20:00.110Z,90.7
2017-10-29T14:21:08.743Z,90.22
2017-10-29T14:22:17.368Z,88.98
2017-10-29T14:23:25.988Z,89.55
2017-10-29T14:24:34.618Z,88.51
2017-10-29T14:25:43.240Z,88.46
2017-10-29T14:26:51.867Z,88.89
2017-10-29T14:28:00.493Z,90.22
2017-10-29T14:29:09.116Z,89.98
2017-10-29T14:30:17.749Z,91.7
2017-10-29T14:31:26.370Z,90.41
2017-10-29T14:32:34.995Z,90.46
2017-10-29T14:33:43.620Z,89.89
2017-10-29T14:34:52.245Z,90.56
2017-10-29T14:36:00.875Z,90.46
2017-10-29T14:37:09.496Z,90.94
2017-10-29T14:38:18.122Z,92.18
2017-10-29T14:39:26.771Z,94.74
2017-10-29T14:40:35.385Z,94.46
2017-10-29T14:41:44.010Z,92.65
2017-10-29T14:42:52.629Z,92.36
2017-10-29T14:44:01.247Z,94.46
2017-10-29T14:45:09.878Z,93.6
2017-10-29T14:46:18.501Z,92.36